Time;durP1;ratioP1;P1;durP2;ratioP2;P2;SDS_P1;SDS_P2;PMS_P1;PMS_P2;Temp;Humidity;BMP_temperature;BMP_pressure;BME280_temperature;BME280_humidity;BME280_pressure;Samples;Min_cycle;Max_cycle;Signal;HPM_P1;HPM_P2
2022/10/10 00:01:23;;;;;;;7.63;3.07;;;;;;;14.03;100.00;100093.44;1646298;85;21521;-57
2022/10/10 00:03:52;;;;;;;6.70;2.63;;;;;;;14.07;100.00;100095.94;1654472;85;21505;-57
2022/10/10 00:06:20;;;;;;;4.67;2.27;;;;;;;14.06;100.00;100095.14;1696786;84;20948;-57
2022/10/10 00:08:47;;;;;;;5.10;2.50;;;;;;;14.09;100.00;100089.97;1667763;84;21045;-58
2022/10/10 00:11:16;;;;;;;4.87;2.63;;;;;;;14.06;100.00;100091.20;1696481;84;20944;-62
2022/10/10 00:13:45;;;;;;;3.67;2.33;;;;;;;13.94;100.00;100090.75;1667664;86;21475;-58
2022/10/10 00:16:13;;;;;;;4.40;2.40;;;;;;;13.92;100.00;100087.55;1696913;84;21229;-57
2022/10/10 00:18:41;;;;;;;4.20;2.23;;;;;;;13.86;100.00;100086.08;1667812;84;20959;-62
2022/10/10 00:21:10;;;;;;;4.97;2.60;;;;;;;13.88;100.00;100090.58;1697016;84;21019;-57
2022/10/10 00:23:37;;;;;;;4.67;2.37;;;;;;;13.88;100.00;100090.58;1667388;84;20971;-59
2022/10/10 00:26:05;;;;;;;4.83;2.30;;;;;;;13.81;100.00;100086.38;1697062;84;21073;-59
2022/10/10 00:28:32;;;;;;;5.33;2.57;;;;;;;13.81;100.00;100084.56;1667946;86;22300;-61
2022/10/10 00:31:00;;;;;;;5.93;3.20;;;;;;;13.92;100.00;100083.11;1697095;84;20967;-63
2022/10/10 00:33:28;;;;;;;4.20;2.30;;;;;;;13.87;100.00;100078.50;1667597;85;20940;-61
2022/10/10 00:35:56;;;;;;;5.27;2.47;;;;;;;13.78;100.00;100078.42;1697071;84;21920;-58
2022/10/10 00:38:23;;;;;;;6.20;2.20;;;;;;;13.77;100.00;100074.20;1667850;86;20935;-58
2022/10/10 00:40:55;;;;;;;4.07;2.57;;;;;;;13.72;100.00;100074.55;1696814;84;21166;-59
2022/10/10 00:43:24;;;;;;;5.20;2.47;;;;;;;13.70;100.00;100079.97;1667843;84;21489;-67
2022/10/10 00:45:51;;;;;;;7.17;3.00;;;;;;;13.71;100.00;100080.77;1696719;84;21062;-58
2022/10/10 00:48:41;;;;;;;5.17;2.30;;;;;;;13.77;100.00;100077.33;1667920;86;21011;-58
2022/10/10 00:51:12;;;;;;;5.43;2.47;;;;;;;13.82;100.00;100077.50;1697160;84;20994;-68
2022/10/10 00:53:45;;;;;;;5.47;2.30;;;;;;;13.81;100.00;100078.02;1668218;86;22248;-58
2022/10/10 00:56:13;;;;;;;5.83;2.20;;;;;;;13.78;100.00;100077.11;1697236;84;20959;-58
2022/10/10 00:58:42;;;;;;;4.50;3.07;;;;;;;13.81;100.00;100073.28;1665639;84;20951;-58
2022/10/10 01:01:09;;;;;;;5.13;2.90;;;;;;;13.83;100.00;100074.69;1667617;86;21549;-67
2022/10/10 01:03:38;;;;;;;4.87;3.00;;;;;;;13.79;100.00;100076.12;1696926;83;21478;-58
2022/10/10 01:06:05;;;;;;;8.40;3.07;;;;;;;13.81;100.00;100075.91;1667761;86;21285;-58
2022/10/10 01:08:34;;;;;;;5.17;2.57;;;;;;;13.83;100.00;100074.69;1696981;84;21007;-59
2022/10/10 01:11:25;;;;;;;6.93;2.53;;;;;;;13.82;100.00;100070.95;1667929;84;21099;-57
2022/10/10 01:14:07;;;;;;;5.57;2.90;;;;;;;13.80;100.00;100066.44;1696873;84;20978;-57
2022/10/10 01:16:49;;;;;;;9.70;2.85;;;;;;;13.81;100.00;100065.42;1668090;86;21003;-59
2022/10/10 01:19:59;;;;;;;7.25;3.00;;;;;;;13.82;100.00;100065.20;1667107;86;21569;-57
2022/10/10 01:22:49;;;;;;;6.85;2.67;;;;;;;13.85;100.00;100059.55;1650486;84;21031;-57
2022/10/10 01:25:27;;;;;;;5.47;2.57;;;;;;;13.85;100.00;100060.86;1697136;84;20908;-57
2022/10/10 01:28:02;;;;;;;4.83;2.50;;;;;;;13.88;100.00;100068.81;1667326;86;21011;-57
2022/10/10 01:30:30;;;;;;;6.00;2.90;;;;;;;13.88;100.00;100064.89;1666758;86;21059;-57
2022/10/10 01:33:08;;;;;;;9.57;3.20;;;;;;;13.86;100.00;100067.73;1696964;84;21470;-57
2022/10/10 01:36:07;;;;;;;5.83;3.07;;;;;;;13.93;100.00;100065.56;1667404;86;21051;-65
2022/10/10 01:38:57;;;;;;;4.17;2.80;;;;;;;13.87;100.00;100066.71;1664374;86;20948;-58
2022/10/10 01:41:31;;;;;;;4.97;3.00;;;;;;;13.83;100.00;100060.28;1666662;86;20991;-58
2022/10/10 01:43:58;;;;;;;7.20;3.63;;;;;;;13.83;100.00;100061.59;1667014;86;21075;-58
2022/10/10 01:46:25;;;;;;;7.40;3.27;;;;;;;13.84;100.00;100059.27;1697038;82;21227;-58
2022/10/10 01:48:54;;;;;;;6.63;3.20;;;;;;;13.85;100.00;100054.31;1667290;84;20928;-61
2022/10/10 01:51:47;;;;;;;5.63;2.50;;;;;;;13.87;100.00;100052.30;1696855;84;21440;-58
2022/10/10 01:54:47;;;;;;;5.10;2.87;;;;;;;13.86;100.00;100046.77;1696857;82;20944;-60
2022/10/10 01:57:25;;;;;;;4.97;3.17;;;;;;;13.92;100.00;100041.18;1667796;85;20967;-58
2022/10/10 02:00:09;;;;;;;6.10;3.23;;;;;;;13.88;100.00;100040.80;1687995;83;21902;-66
2022/10/10 02:02:58;;;;;;;6.60;2.57;;;;;;;13.84;100.00;100038.81;1667949;86;20947;-58
2022/10/10 02:05:36;;;;;;;5.33;2.80;;;;;;;13.70;100.00;100036.75;1688801;84;20936;-59
2022/10/10 02:08:14;;;;;;;4.63;2.57;;;;;;;13.73;100.00;100038.96;1646785;87;20955;-58
2022/10/10 02:10:50;;;;;;;6.53;2.50;;;;;;;13.69;100.00;100036.46;1646582;87;21110;-58
2022/10/10 02:13:18;;;;;;;5.40;3.00;;;;;;;13.74;100.00;100035.32;1646105;85;21255;-58
2022/10/10 02:15:52;;;;;;;6.30;3.23;;;;;;;13.70;100.00;100027.58;1646363;86;21323;-60
2022/10/10 02:18:21;;;;;;;5.47;2.90;;;;;;;13.74;100.00;100024.84;1646448;85;21134;-58
2022/10/10 02:20:49;;;;;;;4.00;2.43;;;;;;;13.70;100.00;100023.66;1646645;85;20991;-58
2022/10/10 02:23:17;;;;;;;5.63;2.90;;;;;;;13.76;100.00;100022.03;1646087;86;20967;-59
2022/10/10 02:25:48;;;;;;;5.20;2.40;;;;;;;13.77;100.00;100024.94;1646292;86;21185;-59
2022/10/10 02:28:34;;;;;;;4.20;2.30;;;;;;;13.74;100.00;100016.19;1646733;85;21054;-58
2022/10/10 02:31:06;;;;;;;4.67;2.60;;;;;;;13.74;100.00;100027.45;1646250;85;21058;-59
2022/10/10 02:33:55;;;;;;;4.87;3.40;;;;;;;13.67;100.00;100024.06;1646278;87;21939;-58
2022/10/10 02:36:22;;;;;;;7.83;3.60;;;;;;;13.70;100.00;100026.27;1646346;86;21027;-62
2022/10/10 02:38:49;;;;;;;6.40;3.53;;;;;;;13.73;100.00;100035.03;1646196;86;21247;-58
2022/10/10 02:41:17;;;;;;;9.07;4.37;;;;;;;13.68;100.00;100041.41;1646393;87;21626;-58
2022/10/10 02:43:44;;;;;;;6.63;3.67;;;;;;;13.67;100.00;100038.47;1628145;87;21536;-60
2022/10/10 02:46:12;;;;;;;6.03;3.03;;;;;;;13.76;100.00;100037.23;1646447;86;21051;-58
2022/10/10 02:48:40;;;;;;;6.30;3.10;;;;;;;13.83;100.00;100041.94;1627325;87;21031;-58
2022/10/10 02:51:08;;;;;;;8.87;3.00;;;;;;;13.82;100.00;100041.63;1627839;87;21257;-58
2022/10/10 02:53:36;;;;;;;5.13;3.70;;;;;;;13.83;100.00;100039.83;1646651;86;21639;-58
2022/10/10 02:56:04;;;;;;;7.20;3.57;;;;;;;13.81;100.00;100038.72;1646445;87;20967;-59
2022/10/10 02:58:32;;;;;;;5.33;2.97;;;;;;;13.78;100.00;100035.20;1646113;87;21030;-59
2022/10/10 03:00:59;;;;;;;4.73;2.80;;;;;;;13.88;100.00;100030.31;1646284;85;20948;-59
2022/10/10 03:03:26;;;;;;;6.33;3.07;;;;;;;13.85;100.00;100035.97;1646423;85;21126;-58
2022/10/10 03:05:54;;;;;;;6.13;3.10;;;;;;;13.99;100.00;100033.30;1663981;84;21577;-58
2022/10/10 03:08:21;;;;;;;7.87;3.30;;;;;;;14.04;100.00;100030.32;1696640;84;21092;-58
2022/10/10 03:10:57;;;;;;;5.37;2.80;;;;;;;13.96;100.00;100031.09;1667710;84;21900;-62
2022/10/10 03:13:27;;;;;;;6.70;3.60;;;;;;;14.00;100.00;100029.65;1696802;84;21445;-57
2022/10/10 03:15:55;;;;;;;8.90;3.30;;;;;;;13.93;100.00;100028.38;1667668;86;21187;-57
2022/10/10 03:18:22;;;;;;;4.83;3.10;;;;;;;14.02;100.00;100019.77;1696504;82;20999;-57
2022/10/10 03:20:51;;;;;;;7.87;3.40;;;;;;;13.93;100.00;100019.20;1667591;86;20927;-69
2022/10/10 03:23:18;;;;;;;6.47;4.43;;;;;;;13.91;100.00;100019.13;1696954;82;21511;-56
2022/10/10 03:25:46;;;;;;;5.80;3.40;;;;;;;13.84;100.00;100017.34;1667659;86;21102;-57
2022/10/10 03:28:13;;;;;;;4.47;3.07;;;;;;;13.77;100.00;100021.81;1696701;82;21157;-57
2022/10/10 03:30:40;;;;;;;7.93;3.30;;;;;;;13.76;100.00;100017.59;1667744;84;20962;-57
2022/10/10 03:33:08;;;;;;;5.90;3.40;;;;;;;13.69;100.00;100015.50;1696373;84;20900;-67
2022/10/10 03:35:35;;;;;;;6.57;3.57;;;;;;;13.65;100.00;100010.91;1667703;86;21125;-57
2022/10/10 03:38:02;;;;;;;6.40;3.33;;;;;;;13.79;100.00;100015.87;1696625;84;21042;-57
2022/10/10 03:40:30;;;;;;;5.00;3.20;;;;;;;13.77;100.00;100019.19;1667673;86;21251;-59
2022/10/10 03:42:59;;;;;;;7.03;3.20;;;;;;;13.81;100.00;100028.23;1696872;84;20959;-57
2022/10/10 03:45:27;;;;;;;5.83;3.63;;;;;;;13.82;100.00;100024.59;1667147;84;20951;-68
2022/10/10 03:47:54;;;;;;;4.70;3.23;;;;;;;13.81;100.00;100021.69;1696675;84;21320;-58
2022/10/10 03:50:21;;;;;;;6.47;3.67;;;;;;;13.84;100.00;100019.96;1667655;86;21031;-56
2022/10/10 03:52:49;;;;;;;4.87;3.33;;;;;;;13.87;100.00;100020.86;1697113;84;21446;-57
2022/10/10 03:55:16;;;;;;;8.93;3.50;;;;;;;13.90;100.00;100014.88;1667601;84;21069;-58
2022/10/10 03:57:43;;;;;;;7.27;3.37;;;;;;;13.91;100.00;100017.83;1696245;84;21031;-57
2022/10/10 04:00:12;;;;;;;8.13;3.70;;;;;;;13.94;100.00;100014.75;1667855;86;21058;-57
2022/10/10 04:02:39;;;;;;;5.90;3.40;;;;;;;13.96;100.00;100017.47;1696655;84;20945;-56
2022/10/10 04:05:06;;;;;;;8.17;4.20;;;;;;;13.98;100.00;100015.46;1670405;85;22013;-57
2022/10/10 04:07:35;;;;;;;7.80;3.67;;;;;;;14.03;100.00;100017.44;1699981;84;21019;-60
2022/10/10 04:10:04;;;;;;;8.87;3.37;;;;;;;14.05;100.00;100018.84;1700098;84;20973;-56
2022/10/10 04:12:33;;;;;;;5.67;3.10;;;;;;;14.06;100.00;100021.75;1700243;84;20957;-56
2022/10/10 04:15:00;;;;;;;6.40;3.57;;;;;;;14.06;100.00;100025.69;1700360;84;20940;-58
2022/10/10 04:17:27;;;;;;;6.90;3.63;;;;;;;13.92;100.00;100026.77;1700337;84;21264;-56
2022/10/10 04:19:56;;;;;;;5.37;3.70;;;;;;;13.99;100.00;100032.78;1699812;84;21008;-57
2022/10/10 04:22:23;;;;;;;7.87;3.57;;;;;;;13.94;100.00;100026.06;1700416;84;21534;-56
2022/10/10 04:24:50;;;;;;;6.90;3.80;;;;;;;13.96;100.00;100029.78;1700100;84;21036;-57
2022/10/10 04:27:18;;;;;;;7.90;3.40;;;;;;;13.88;100.00;100030.83;1700094;84;20976;-57
2022/10/10 04:29:46;;;;;;;6.67;3.23;;;;;;;13.98;100.00;100027.25;1699712;84;21255;-62
2022/10/10 04:32:13;;;;;;;5.90;3.70;;;;;;;14.03;100.00;100035.27;1700224;83;21959;-57
2022/10/10 04:34:40;;;;;;;5.87;3.50;;;;;;;13.94;100.00;100035.72;1700145;84;21004;-56
2022/10/10 04:37:08;;;;;;;5.97;3.30;;;;;;;13.97;100.00;100040.03;1700116;83;21039;-57
2022/10/10 04:39:35;;;;;;;6.43;3.10;;;;;;;13.73;100.00;100041.58;1700072;83;21072;-59
2022/10/10 04:42:02;;;;;;;5.63;2.77;;;;;;;13.67;100.00;100041.09;1700001;83;21261;-57
2022/10/10 04:44:30;;;;;;;4.50;2.83;;;;;;;13.69;100.00;100042.21;1700267;84;21103;-56
2022/10/10 04:46:57;;;;;;;6.20;2.97;;;;;;;13.66;100.00;100038.19;1700257;83;20921;-57
2022/10/10 04:49:24;;;;;;;5.20;3.07;;;;;;;13.61;100.00;100039.33;1700296;84;21250;-57
2022/10/10 04:51:51;;;;;;;5.23;2.50;;;;;;;13.60;100.00;100037.72;1700035;83;21051;-70
2022/10/10 04:54:19;;;;;;;6.33;3.30;;;;;;;13.73;100.00;100040.78;1700101;84;21788;-58
2022/10/10 04:56:46;;;;;;;9.07;3.70;;;;;;;13.69;100.00;100036.46;1700062;84;21037;-58
2022/10/10 04:59:13;;;;;;;7.37;3.50;;;;;;;13.68;100.00;100045.85;1700137;84;21589;-57
2022/10/10 05:01:41;;;;;;;6.10;3.13;;;;;;;13.58;100.00;100037.11;1700592;84;20988;-71
2022/10/10 05:04:08;;;;;;;7.00;3.23;;;;;;;13.56;100.00;100033.41;1699790;84;21051;-57
2022/10/10 05:06:35;;;;;;;5.47;3.13;;;;;;;13.66;100.00;100036.08;1699705;84;21170;-58
2022/10/10 05:09:03;;;;;;;7.90;3.13;;;;;;;13.70;100.00;100034.64;1696827;84;20975;-57
2022/10/10 05:11:30;;;;;;;7.07;3.60;;;;;;;13.79;100.00;100038.13;1667811;86;21028;-57
2022/10/10 05:13:57;;;;;;;7.03;3.87;;;;;;;13.73;100.00;100036.34;1696490;84;21059;-61
2022/10/10 05:16:25;;;;;;;6.73;3.37;;;;;;;13.83;100.00;100034.08;1667888;86;21084;-58
2022/10/10 05:18:52;;;;;;;6.33;3.40;;;;;;;13.86;100.00;100028.43;1696977;84;21089;-58
2022/10/10 05:21:20;;;;;;;6.70;2.73;;;;;;;14.09;100.00;100024.44;1667644;86;21022;-56
2022/10/10 05:23:47;;;;;;;6.50;3.27;;;;;;;14.19;100.00;100027.41;1697316;82;21549;-57
2022/10/10 05:26:14;;;;;;;9.23;3.07;;;;;;;14.23;100.00;100018.10;1667317;86;21493;-57
2022/10/10 05:28:43;;;;;;;8.07;3.17;;;;;;;14.25;100.00;100021.33;1696694;84;21335;-57
2022/10/10 05:31:10;;;;;;;5.40;3.73;;;;;;;14.26;100.00;100025.55;1667660;86;21121;-58
2022/10/10 05:33:38;;;;;;;5.80;3.50;;;;;;;14.36;100.00;100017.22;1696883;82;21469;-59
2022/10/10 05:36:10;;;;;;;6.60;3.10;;;;;;;14.34;100.00;100017.41;1667288;84;21078;-61
2022/10/10 05:38:38;;;;;;;7.63;3.33;;;;;;;14.38;100.00;100020.41;1696881;84;21591;-58
2022/10/10 05:41:06;;;;;;;7.87;3.70;;;;;;;14.33;100.00;100025.51;1667991;86;20986;-57
2022/10/10 05:43:34;;;;;;;5.73;3.50;;;;;;;14.33;100.00;100022.38;1696819;84;21929;-57
2022/10/10 05:46:02;;;;;;;4.03;2.97;;;;;;;14.31;100.00;100032.77;1667437;86;21042;-58
2022/10/10 05:48:29;;;;;;;6.47;3.30;;;;;;;14.37;100.00;100031.93;1696822;82;21491;-57
2022/10/10 05:50:58;;;;;;;5.00;3.00;;;;;;;14.41;100.00;100037.55;1667797;84;21097;-62
2022/10/10 05:53:26;;;;;;;5.97;3.00;;;;;;;14.48;100.00;100040.93;1696944;84;21011;-58
2022/10/10 05:55:53;;;;;;;4.87;2.80;;;;;;;14.49;100.00;100039.91;1667744;84;21902;-67
2022/10/10 05:58:20;;;;;;;5.83;3.20;;;;;;;14.41;100.00;100040.17;1696553;82;21497;-58
2022/10/10 06:00:47;;;;;;;5.90;3.27;;;;;;;14.39;100.00;100041.68;1667664;86;22047;-58
2022/10/10 06:03:16;;;;;;;5.97;3.13;;;;;;;14.40;100.00;100050.37;1696842;84;21042;-58
2022/10/10 06:05:44;;;;;;;5.87;2.83;;;;;;;14.57;100.00;100048.33;1668687;85;20975;-58
2022/10/10 06:08:12;;;;;;;4.40;3.03;;;;;;;14.58;100.00;100053.06;1643636;85;21160;-58
2022/10/10 06:10:41;;;;;;;6.53;3.40;;;;;;;14.52;100.00;100058.67;1691988;84;20959;-58
2022/10/10 06:13:11;;;;;;;4.87;3.20;;;;;;;14.64;100.00;100057.98;1692371;84;21086;-58
2022/10/10 06:15:39;;;;;;;6.65;3.40;;;;;;;14.62;100.00;100061.31;1692490;84;21023;-59
2022/10/10 06:18:08;;;;;;;6.60;3.20;;;;;;;14.79;100.00;100067.13;1692340;84;20916;-58
2022/10/10 06:20:37;;;;;;;6.20;3.13;;;;;;;14.84;100.00;100062.03;1691914;84;21144;-70
2022/10/10 06:23:05;;;;;;;4.87;3.40;;;;;;;14.92;100.00;100067.52;1692366;84;21018;-58
2022/10/10 06:25:33;;;;;;;5.07;3.80;;;;;;;14.84;100.00;100071.21;1692468;84;21026;-58
2022/10/10 06:28:01;;;;;;;5.90;3.73;;;;;;;14.84;100.00;100071.21;1692460;84;21555;-58
2022/10/10 06:30:30;;;;;;;5.57;3.67;;;;;;;14.84;100.00;100065.16;1691996;84;21422;-69
2022/10/10 06:32:57;;;;;;;6.33;3.73;;;;;;;14.88;100.00;100068.16;1692303;84;21468;-59
2022/10/10 06:35:24;;;;;;;8.07;3.73;;;;;;;14.99;100.00;100064.84;1692523;84;21006;-57
2022/10/10 06:37:52;;;;;;;7.73;5.50;;;;;;;15.10;100.00;100060.19;1692150;84;21098;-58
2022/10/10 06:40:19;;;;;;;9.30;5.87;;;;;;;15.13;100.00;100057.64;1692282;84;21007;-57
2022/10/10 06:42:46;;;;;;;7.33;4.87;;;;;;;15.15;100.00;100060.33;1691949;84;21462;-68
2022/10/10 06:45:14;;;;;;;6.13;3.77;;;;;;;15.19;100.00;100048.88;1692197;84;21266;-57
2022/10/10 06:47:43;;;;;;;6.83;3.73;;;;;;;15.12;100.00;100050.28;1692655;84;21021;-58
2022/10/10 06:50:10;;;;;;;6.67;3.90;;;;;;;15.28;100.00;100047.59;1692476;84;20943;-57
2022/10/10 06:52:39;;;;;;;6.17;3.70;;;;;;;15.38;100.00;100041.80;1692254;84;21015;-57
2022/10/10 06:55:06;;;;;;;6.27;4.20;;;;;;;15.41;100.00;100047.42;1666502;84;21513;-57
2022/10/10 06:57:34;;;;;;;6.73;3.97;;;;;;;15.43;100.00;100049.84;1693016;84;21299;-57
2022/10/10 07:00:04;;;;;;;6.00;3.97;;;;;;;15.45;100.00;100051.21;1692403;84;21564;-58
2022/10/10 07:02:32;;;;;;;7.08;3.77;;;;;;;15.46;100.00;100048.10;1692385;84;21022;-58
2022/10/10 07:04:59;;;;;;;5.60;3.63;;;;;;;15.46;100.00;100048.90;1692016;84;20967;-58
2022/10/10 07:07:27;;;;;;;6.27;3.50;;;;;;;15.45;100.00;100047.79;1698408;82;21010;-58
2022/10/10 07:09:56;;;;;;;6.17;4.20;;;;;;;15.53;100.00;100039.61;1696912;84;21956;-57
2022/10/10 07:12:23;;;;;;;7.83;3.33;;;;;;;15.57;100.00;100040.80;1667994;86;21524;-58
2022/10/10 07:14:50;;;;;;;4.70;3.07;;;;;;;15.67;100.00;100040.28;1696149;84;21070;-63
2022/10/10 07:17:17;;;;;;;5.63;3.07;;;;;;;15.75;100.00;100036.83;1667644;86;21469;-58
2022/10/10 07:19:45;;;;;;;9.00;3.27;;;;;;;15.83;100.00;100032.30;1696964;84;20991;-58
2022/10/10 07:22:12;;;;;;;4.97;2.87;;;;;;;15.95;100.00;100025.28;1667661;84;21186;-57
2022/10/10 07:24:40;;;;;;;5.37;2.70;;;;;;;16.07;100.00;100033.20;1696482;84;21116;-61
2022/10/10 07:27:07;;;;;;;7.87;3.13;;;;;;;16.23;100.00;100030.71;1667794;86;21077;-58
2022/10/10 07:29:36;;;;;;;5.10;3.13;;;;;;;16.40;100.00;100026.92;1696390;84;21110;-60
2022/10/10 07:32:04;;;;;;;5.57;3.27;;;;;;;16.47;100.00;100018.91;1667866;86;21027;-59
2022/10/10 07:34:34;;;;;;;7.20;2.60;;;;;;;16.56;100.00;100015.45;1696515;84;21079;-70
2022/10/10 07:37:02;;;;;;;4.50;2.90;;;;;;;16.55;100.00;100019.88;1667506;86;21014;-58
2022/10/10 07:39:29;;;;;;;6.17;3.27;;;;;;;16.48;100.00;100021.84;1696833;84;21509;-58
2022/10/10 07:41:58;;;;;;;5.00;2.60;;;;;;;16.44;100.00;100018.87;1667497;86;21031;-59
2022/10/10 07:44:26;;;;;;;7.07;3.03;;;;;;;16.43;100.00;100013.30;1696723;84;21069;-59
2022/10/10 07:46:53;;;;;;;5.23;2.70;;;;;;;16.40;100.00;100019.52;1667222;86;21134;-58
2022/10/10 07:49:20;;;;;;;7.03;3.10;;;;;;;16.40;100.00;100015.58;1696782;84;20947;-58
2022/10/10 07:51:47;;;;;;;5.17;2.77;;;;;;;16.39;100.00;100021.36;1667666;86;21019;-58
2022/10/10 07:54:14;;;;;;;7.97;3.30;;;;;;;16.41;100.00;100028.52;1696793;84;21545;-58
2022/10/10 07:56:41;;;;;;;5.63;3.00;;;;;;;16.41;100.00;100030.36;1667373;86;20994;-59
2022/10/10 07:59:09;;;;;;;4.40;2.80;;;;;;;16.40;100.00;100031.36;1696639;84;21475;-58
2022/10/10 08:01:36;;;;;;;6.83;3.00;;;;;;;16.41;100.00;100030.36;1667507;84;21013;-58
2022/10/10 08:04:03;;;;;;;5.63;4.30;;;;;;;16.43;100.00;100026.97;1696722;84;21082;-61
2022/10/10 08:06:31;;;;;;;8.43;5.77;;;;;;;16.43;100.00;100033.03;1670405;84;20907;-71
2022/10/10 08:08:58;;;;;;;8.87;5.80;;;;;;;16.36;100.00;100032.33;1700009;84;20924;-60
2022/10/10 08:11:26;;;;;;;7.60;4.50;;;;;;;16.36;100.00;100026.27;1700046;84;21154;-58
2022/10/10 08:13:53;;;;;;;8.67;4.80;;;;;;;16.34;100.00;100028.34;1700215;84;20972;-58
2022/10/10 08:16:21;;;;;;;6.23;4.57;;;;;;;16.35;100.00;100024.67;1700313;83;21486;-58
2022/10/10 08:18:48;;;;;;;7.03;6.17;;;;;;;16.34;100.00;100028.34;1699611;84;21464;-59
2022/10/10 08:21:16;;;;;;;7.50;4.20;;;;;;;16.34;100.00;100029.14;1700159;84;21870;-58
2022/10/10 08:23:45;;;;;;;10.90;8.20;;;;;;;16.30;100.00;100024.05;1700182;84;21259;-58
2022/10/10 08:26:14;;;;;;;7.63;4.30;;;;;;;16.28;100.00;100025.56;1700202;84;21056;-58
2022/10/10 08:28:41;;;;;;;6.20;3.93;;;;;;;16.46;100.00;100026.00;1700221;84;20969;-61
2022/10/10 08:31:10;;;;;;;6.27;4.13;;;;;;;16.49;100.00;100020.81;1699853;82;21111;-58
2022/10/10 08:33:37;;;;;;;5.73;4.03;;;;;;;16.53;100.00;100024.59;1700379;84;21510;-58
2022/10/10 08:36:16;;;;;;;7.57;5.73;;;;;;;16.63;100.00;100018.74;1700358;84;21157;-58
2022/10/10 08:38:43;;;;;;;9.90;8.90;;;;;;;16.60;100.00;100016.08;1699720;83;21158;-59
2022/10/10 08:45:08;;;;;;;4.90;2.90;;;;;;;16.47;100.00;100014.44;1700249;84;20995;-58
2022/10/10 08:47:49;;;;;;;5.78;3.47;;;;;;;16.54;100.00;100020.40;1652186;84;20976;-66
2022/10/10 08:50:24;;;;;;;4.50;2.98;;;;;;;16.57;100.00;100019.16;1700610;84;21844;-59
2022/10/10 08:53:02;;;;;;;6.40;3.23;;;;;;;16.56;100.00;100016.77;1700487;84;20956;-59
2022/10/10 08:55:34;;;;;;;5.80;3.00;;;;;;;16.52;100.00;100017.73;1700345;84;21039;-58
2022/10/10 08:58:19;;;;;;;5.97;3.30;;;;;;;16.48;100.00;100017.90;1674517;84;21435;-58
2022/10/10 09:00:52;;;;;;;9.27;4.27;;;;;;;16.41;100.00;100017.20;1700213;84;20952;-62
2022/10/10 09:03:27;;;;;;;5.47;3.33;;;;;;;16.32;100.00;100020.66;1700336;84;21682;-59
2022/10/10 09:06:16;;;;;;;7.03;3.23;;;;;;;16.24;100.00;100020.47;1700288;84;21035;-60
2022/10/10 09:09:02;;;;;;;6.63;3.97;;;;;;;16.15;100.00;100021.84;1700158;84;21059;-59
2022/10/10 09:11:35;;;;;;;5.57;3.60;;;;;;;16.07;100.00;100022.68;1700461;83;21020;-59
2022/10/10 09:14:13;;;;;;;6.63;4.90;;;;;;;15.99;100.00;100023.28;1700105;84;20964;-67
2022/10/10 09:16:55;;;;;;;5.73;4.33;;;;;;;15.88;100.00;100020.62;1663576;84;21549;-59
2022/10/10 09:19:43;;;;;;;5.73;4.10;;;;;;;15.80;100.00;100025.16;1700502;84;21044;-59
2022/10/10 09:22:14;;;;;;;6.17;3.83;;;;;;;15.77;100.00;100023.48;1700378;83;21064;-59
2022/10/10 09:24:48;;;;;;;9.03;3.80;;;;;;;15.70;100.00;100023.56;1700340;84;21040;-59
2022/10/10 09:27:20;;;;;;;5.13;3.70;;;;;;;15.64;100.00;100020.47;1700054;84;20980;-60
2022/10/10 09:30:19;;;;;;;4.93;3.67;;;;;;;15.63;100.00;100020.19;1700253;84;21817;-59
2022/10/10 09:33:32;;;;;;;6.87;3.83;;;;;;;15.60;100.00;100023.25;1635028;84;21059;-58
2022/10/10 09:35:59;;;;;;;5.50;4.00;;;;;;;15.54;100.00;100022.33;1700688;83;20976;-58
2022/10/10 09:38:42;;;;;;;7.97;4.13;;;;;;;15.49;100.00;100016.95;1699681;84;21016;-58
2022/10/10 09:41:48;;;;;;;6.17;4.17;;;;;;;15.45;100.00;100014.44;1700230;84;20961;-60
2022/10/10 09:44:15;;;;;;;5.10;4.03;;;;;;;15.43;100.00;100017.02;1700090;84;21142;-59
2022/10/10 09:46:42;;;;;;;7.43;4.50;;;;;;;15.42;100.00;100015.39;1700391;84;21004;-59
2022/10/10 09:49:13;;;;;;;5.90;4.50;;;;;;;15.38;100.00;100019.00;1700464;84;21491;-59
2022/10/10 09:51:40;;;;;;;6.87;3.62;;;;;;;15.38;100.00;100014.23;1700116;84;21040;-58
2022/10/10 09:54:10;;;;;;;8.37;4.50;;;;;;;15.38;100.00;100008.48;1700298;84;20992;-58
2022/10/10 09:56:56;;;;;;;5.40;3.70;;;;;;;15.39;100.00;100006.15;1700543;84;21150;-59
2022/10/10 09:59:45;;;;;;;6.10;4.13;;;;;;;15.43;100.00;100005.99;1699838;84;21085;-62
2022/10/10 10:02:20;;;;;;;5.73;3.77;;;;;;;15.44;100.00;100003.65;1700425;84;21007;-60
2022/10/10 10:04:47;;;;;;;7.30;3.67;;;;;;;15.53;100.00;100005.45;1699493;84;21109;-59
2022/10/10 10:07:30;;;;;;;5.77;3.37;;;;;;;15.51;100.00;99999.13;1694764;84;20988;-59
2022/10/10 10:10:04;;;;;;;5.13;3.90;;;;;;;15.52;100.00;100008.59;1646613;87;21243;-59
2022/10/10 10:12:40;;;;;;;6.93;3.80;;;;;;;15.50;100.00;99999.35;1646084;86;21022;-67
2022/10/10 10:15:20;;;;;;;5.47;3.60;;;;;;;15.48;100.00;99999.55;1646810;87;21035;-59
2022/10/10 10:18:23;;;;;;;5.87;3.95;;;;;;;15.52;100.00;100002.55;1646982;87;28966;-58
2022/10/10 10:20:55;;;;;;;6.77;3.57;;;;;;;15.51;100.00;99996.49;1642032;87;21039;-59
2022/10/10 10:23:33;;;;;;;4.97;3.52;;;;;;;15.70;100.00;99993.34;1644814;85;21871;-59
2022/10/10 10:26:07;;;;;;;4.97;2.90;;;;;;;15.81;100.00;99984.70;1628932;87;21518;-59
2022/10/10 10:28:40;;;;;;;4.43;3.27;;;;;;;15.86;100.00;99984.03;1646525;86;21015;-58
2022/10/10 10:31:36;;;;;;;4.93;3.27;;;;;;;15.95;100.00;99984.53;1645863;86;21023;-59
2022/10/10 10:34:30;;;;;;;8.03;3.83;;;;;;;15.98;100.00;99988.00;1646355;86;21046;-59
2022/10/10 10:37:22;;;;;;;5.77;3.80;;;;;;;16.12;100.00;99986.78;1645696;86;21269;-61
2022/10/10 10:40:12;;;;;;;7.17;3.20;;;;;;;16.15;100.00;99983.70;1620349;86;21509;-59
2022/10/10 10:42:51;;;;;;;5.20;3.00;;;;;;;16.14;100.00;99982.11;1646143;87;21336;-59
2022/10/10 10:45:58;;;;;;;5.87;3.23;;;;;;;16.07;100.00;99984.04;1646448;87;20892;-59
2022/10/10 10:48:39;;;;;;;5.33;3.60;;;;;;;16.00;100.00;99982.81;1646604;87;21643;-58
2022/10/10 10:51:45;;;;;;;6.53;3.90;;;;;;;15.92;100.00;99979.20;1645878;86;21899;-58
2022/10/10 10:54:33;;;;;;;5.73;3.60;;;;;;;15.93;100.00;99986.05;1646393;85;20994;-58
2022/10/10 10:57:20;;;;;;;6.27;3.50;;;;;;;15.76;100.00;99981.95;1645760;86;21032;-58
2022/10/10 11:00:14;;;;;;;4.97;3.00;;;;;;;15.69;100.00;99980.44;1646503;85;20979;-58
2022/10/10 11:03:20;;;;;;;5.40;3.10;;;;;;;15.60;100.00;99979.11;1646215;85;20996;-58
2022/10/10 11:05:53;;;;;;;4.00;2.47;;;;;;;15.60;100.00;99977.27;1646175;86;21858;-61
2022/10/10 11:08:55;;;;;;;4.50;2.50;;;;;;;15.57;100.00;99977.23;1663438;85;21807;-59
2022/10/10 11:11:46;;;;;;;4.37;2.23;;;;;;;15.48;100.00;99976.43;1691290;84;21093;-60
2022/10/10 11:14:30;;;;;;;3.93;2.30;;;;;;;15.41;100.00;99971.77;1692562;84;20968;-57
2022/10/10 11:17:03;;;;;;;5.20;2.73;;;;;;;15.35;100.00;99971.36;1692274;84;20899;-57
2022/10/10 11:19:40;;;;;;;3.77;2.20;;;;;;;15.25;100.00;99969.24;1692505;84;21295;-60
2022/10/10 11:22:14;;;;;;;3.50;2.07;;;;;;;15.17;100.00;99965.61;1692412;84;20963;-58
2022/10/10 11:24:53;;;;;;;3.03;1.70;;;;;;;15.07;100.00;99968.22;1692276;84;20984;-58
2022/10/10 11:27:43;;;;;;;2.57;1.50;;;;;;;14.84;100.00;99969.38;1692210;84;21059;-59
2022/10/10 11:30:22;;;;;;;1.90;0.97;;;;;;;14.84;100.00;99965.45;1692090;84;20986;-58
2022/10/10 11:33:01;;;;;;;1.23;0.67;;;;;;;14.75;100.00;99967.56;1692453;84;21384;-59
2022/10/10 11:35:51;;;;;;;1.60;0.50;;;;;;;14.67;100.00;99968.36;1692134;84;21430;-61
2022/10/10 11:38:51;;;;;;;0.90;0.40;;;;;;;14.63;100.00;99969.30;1692737;84;20915;-59
2022/10/10 11:41:45;;;;;;;1.23;0.53;;;;;;;14.55;100.00;99969.59;1691941;84;20874;-59
2022/10/10 11:44:22;;;;;;;0.93;0.40;;;;;;;14.45;100.00;99971.86;1692582;84;21079;-58
2022/10/10 11:47:13;;;;;;;1.20;0.50;;;;;;;14.38;100.00;99975.04;1692009;84;21563;-59
2022/10/10 11:50:03;;;;;;;1.23;0.50;;;;;;;14.24;100.00;99962.53;1692238;84;20960;-58